sensor_id;sensor_type;location;lat;lon;timestamp;pressure;altitude;pressure_sealevel;temperature;humidity
38054;BME280;23859;50.672;7.164;2024-02-23T00:01:16;36117.13;;;-140.95;62.10
38054;BME280;23859;50.672;7.164;2024-02-23T00:03:42;36072.91;;;-140.95;61.19
38054;BME280;23859;50.672;7.164;2024-02-23T00:06:08;36107.06;;;-140.95;62.70
38054;BME280;23859;50.672;7.164;2024-02-23T00:08:34;36082.97;;;-140.95;62.73
38054;BME280;23859;50.672;7.164;2024-02-23T00:11:00;36111.09;;;-140.95;63.04
38054;BME280;23859;50.672;7.164;2024-02-23T00:13:26;36103.06;;;-140.95;62.50
38054;BME280;23859;50.672;7.164;2024-02-23T00:15:52;36099.03;;;-140.95;62.39
38054;BME280;23859;50.672;7.164;2024-02-23T00:18:18;36133.19;;;-140.95;62.31
38054;BME280;23859;50.672;7.164;2024-02-23T00:20:46;36121.13;;;-140.95;63.30
38054;BME280;23859;50.672;7.164;2024-02-23T00:23:12;36137.22;;;-140.95;62.28
38054;BME280;23859;50.672;7.164;2024-02-23T00:25:38;36135.22;;;-140.95;63.46
38054;BME280;23859;50.672;7.164;2024-02-23T00:28:05;36119.13;;;-140.95;63.22
38054;BME280;23859;50.672;7.164;2024-02-23T00:30:31;36125.16;;;-140.95;63.69
38054;BME280;23859;50.672;7.164;2024-02-23T00:32:57;36137.22;;;-140.95;62.48
38054;BME280;23859;50.672;7.164;2024-02-23T00:35:23;36082.97;;;-140.95;62.38
38054;BME280;23859;50.672;7.164;2024-02-23T00:37:49;36113.09;;;-140.95;63.41
38054;BME280;23859;50.672;7.164;2024-02-23T00:40:15;36149.28;;;-140.95;63.60
38054;BME280;23859;50.672;7.164;2024-02-23T00:42:41;36137.22;;;-140.95;63.99
38054;BME280;23859;50.672;7.164;2024-02-23T00:45:08;36161.31;;;-140.95;62.42
38054;BME280;23859;50.672;7.164;2024-02-23T00:47:34;36159.31;;;-140.95;63.10
38054;BME280;23859;50.672;7.164;2024-02-23T00:50:01;36155.31;;;-140.95;62.34
38054;BME280;23859;50.672;7.164;2024-02-23T00:52:27;36149.28;;;-140.95;63.21
38054;BME280;23859;50.672;7.164;2024-02-23T00:54:53;36139.22;;;-140.95;63.84
38054;BME280;23859;50.672;7.164;2024-02-23T00:57:19;36153.28;;;-140.95;63.09
38054;BME280;23859;50.672;7.164;2024-02-23T00:59:53;36482.84;;;-140.95;63.96
38054;BME280;23859;50.672;7.164;2024-02-23T01:02:19;36133.19;;;-140.95;63.72
38054;BME280;23859;50.672;7.164;2024-02-23T01:04:45;36167.34;;;-140.95;62.47
38054;BME280;23859;50.672;7.164;2024-02-23T01:07:11;36161.31;;;-140.95;62.31
38054;BME280;23859;50.672;7.164;2024-02-23T01:09:37;36207.53;;;-140.95;63.03
38054;BME280;23859;50.672;7.164;2024-02-23T01:12:03;36165.34;;;-140.95;62.33
38054;BME280;23859;50.672;7.164;2024-02-23T01:14:29;36175.41;;;-140.95;62.22
38054;BME280;23859;50.672;7.164;2024-02-23T01:16:55;36157.31;;;-140.95;62.37
38054;BME280;23859;50.672;7.164;2024-02-23T01:19:21;36203.53;;;-140.95;63.39
38054;BME280;23859;50.672;7.164;2024-02-23T01:21:47;36197.50;;;-140.95;63.14
38054;BME280;23859;50.672;7.164;2024-02-23T01:24:14;36189.47;;;-140.95;63.12
38054;BME280;23859;50.672;7.164;2024-02-23T01:26:40;36193.47;;;-140.95;63.78
38054;BME280;23859;50.672;7.164;2024-02-23T01:29:07;36181.41;;;-140.95;62.77
38054;BME280;23859;50.672;7.164;2024-02-23T01:31:33;36203.53;;;-140.95;63.05
38054;BME280;23859;50.672;7.164;2024-02-23T01:33:59;36181.41;;;-140.95;62.53
38054;BME280;23859;50.672;7.164;2024-02-23T01:36:25;36173.38;;;-140.95;63.56
38054;BME280;23859;50.672;7.164;2024-02-23T01:38:51;36247.72;;;-140.95;63.00
38054;BME280;23859;50.672;7.164;2024-02-23T01:41:17;36201.50;;;-140.95;63.86
38054;BME280;23859;50.672;7.164;2024-02-23T01:43:43;36173.38;;;-140.95;62.96
38054;BME280;23859;50.672;7.164;2024-02-23T01:46:09;36183.44;;;-140.95;64.14
38054;BME280;23859;50.672;7.164;2024-02-23T01:48:35;36197.50;;;-140.95;64.22
38054;BME280;23859;50.672;7.164;2024-02-23T01:51:02;36185.44;;;-140.95;64.63
38054;BME280;23859;50.672;7.164;2024-02-23T01:53:28;36209.56;;;-140.95;64.44
38054;BME280;23859;50.672;7.164;2024-02-23T01:55:55;36157.31;;;-140.95;64.86
38054;BME280;23859;50.672;7.164;2024-02-23T01:58:23;36193.47;;;-140.95;63.99
38054;BME280;23859;50.672;7.164;2024-02-23T02:00:50;36203.53;;;-140.95;64.39
38054;BME280;23859;50.672;7.164;2024-02-23T02:03:16;36181.41;;;-140.95;64.61
38054;BME280;23859;50.672;7.164;2024-02-23T02:05:42;36185.44;;;-140.95;65.34
38054;BME280;23859;50.672;7.164;2024-02-23T02:08:11;36215.59;;;-140.95;64.48
38054;BME280;23859;50.672;7.164;2024-02-23T02:10:37;36205.53;;;-140.95;64.78
38054;BME280;23859;50.672;7.164;2024-02-23T02:13:04;36233.66;;;-140.95;64.80
38054;BME280;23859;50.672;7.164;2024-02-23T02:15:31;36211.56;;;-140.95;64.59
38054;BME280;23859;50.672;7.164;2024-02-23T02:17:57;36191.47;;;-140.95;65.28
38054;BME280;23859;50.672;7.164;2024-02-23T02:20:25;36177.41;;;-140.95;65.83
38054;BME280;23859;50.672;7.164;2024-02-23T02:22:52;36193.47;;;-140.95;65.57
38054;BME280;23859;50.672;7.164;2024-02-23T02:25:18;36223.63;;;-140.95;67.48
38054;BME280;23859;50.672;7.164;2024-02-23T02:27:44;36201.50;;;-140.95;66.49
38054;BME280;23859;50.672;7.164;2024-02-23T02:30:12;36189.47;;;-140.95;67.72
38054;BME280;23859;50.672;7.164;2024-02-23T02:32:38;36181.41;;;-140.95;65.54
38054;BME280;23859;50.672;7.164;2024-02-23T02:35:05;36189.47;;;-140.95;65.57
38054;BME280;23859;50.672;7.164;2024-02-23T02:37:31;36193.47;;;-140.95;67.15
38054;BME280;23859;50.672;7.164;2024-02-23T02:39:57;36183.44;;;-140.95;65.38
38054;BME280;23859;50.672;7.164;2024-02-23T02:42:23;36205.53;;;-140.95;65.36
38054;BME280;23859;50.672;7.164;2024-02-23T02:44:49;36201.50;;;-140.95;65.77
38054;BME280;23859;50.672;7.164;2024-02-23T02:47:15;36205.53;;;-140.95;66.25
38054;BME280;23859;50.672;7.164;2024-02-23T02:49:41;36205.53;;;-140.95;66.61
38054;BME280;23859;50.672;7.164;2024-02-23T02:52:07;34536.09;;;-140.95;67.09
38054;BME280;23859;50.672;7.164;2024-02-23T02:54:34;36253.75;;;-140.95;67.11
38054;BME280;23859;50.672;7.164;2024-02-23T02:57:00;36229.66;;;-140.95;67.59
38054;BME280;23859;50.672;7.164;2024-02-23T02:59:26;36205.53;;;-140.95;68.02
38054;BME280;23859;50.672;7.164;2024-02-23T03:01:52;36229.66;;;-140.95;68.17
38054;BME280;23859;50.672;7.164;2024-02-23T03:04:18;36253.75;;;-140.95;68.98
38054;BME280;23859;50.672;7.164;2024-02-23T03:06:44;36245.72;;;-140.95;69.11
38054;BME280;23859;50.672;7.164;2024-02-23T03:09:10;36261.78;;;-140.95;68.99
38054;BME280;23859;50.672;7.164;2024-02-23T03:11:37;36231.66;;;-140.95;69.42
38054;BME280;23859;50.672;7.164;2024-02-23T03:14:03;36249.75;;;-140.95;68.92
38054;BME280;23859;50.672;7.164;2024-02-23T03:16:29;36235.69;;;-140.95;68.40
38054;BME280;23859;50.672;7.164;2024-02-23T03:18:57;36217.59;;;-140.95;68.38
38054;BME280;23859;50.672;7.164;2024-02-23T03:21:23;36237.69;;;-140.95;68.29
38054;BME280;23859;50.672;7.164;2024-02-23T03:23:49;36193.47;;;-140.95;68.39
38054;BME280;23859;50.672;7.164;2024-02-23T03:26:15;36213.56;;;-140.95;68.40
38054;BME280;23859;50.672;7.164;2024-02-23T03:28:43;36223.63;;;-140.95;68.35
38054;BME280;23859;50.672;7.164;2024-02-23T03:31:09;36215.59;;;-140.95;68.44
38054;BME280;23859;50.672;7.164;2024-02-23T03:33:35;36209.56;;;-140.95;67.55
38054;BME280;23859;50.672;7.164;2024-02-23T03:36:02;36219.59;;;-140.95;67.67
38054;BME280;23859;50.672;7.164;2024-02-23T03:38:28;36209.56;;;-140.95;67.04
38054;BME280;23859;50.672;7.164;2024-02-23T03:40:55;36233.66;;;-140.95;66.96
38054;BME280;23859;50.672;7.164;2024-02-23T03:43:22;36221.59;;;-140.95;65.97
38054;BME280;23859;50.672;7.164;2024-02-23T03:45:48;36217.59;;;-140.95;65.50
38054;BME280;23859;50.672;7.164;2024-02-23T03:48:14;36201.50;;;-140.95;66.44
38054;BME280;23859;50.672;7.164;2024-02-23T03:50:40;36219.59;;;-140.95;66.41
38054;BME280;23859;50.672;7.164;2024-02-23T03:53:06;36219.59;;;-140.95;66.79
38054;BME280;23859;50.672;7.164;2024-02-23T03:55:32;36197.50;;;-140.95;66.25
38054;BME280;23859;50.672;7.164;2024-02-23T03:57:58;36195.50;;;-140.95;66.14
38054;BME280;23859;50.672;7.164;2024-02-23T04:00:25;36219.59;;;-140.95;66.36
38054;BME280;23859;50.672;7.164;2024-02-23T04:02:51;36201.50;;;-140.95;65.61
38054;BME280;23859;50.672;7.164;2024-02-23T04:05:17;36211.56;;;-140.95;65.54
38054;BME280;23859;50.672;7.164;2024-02-23T04:07:44;36179.41;;;-140.95;65.28
38054;BME280;23859;50.672;7.164;2024-02-23T04:10:10;36191.47;;;-140.95;66.74
38054;BME280;23859;50.672;7.164;2024-02-23T04:12:42;36223.63;;;-140.95;65.51
38054;BME280;23859;50.672;7.164;2024-02-23T04:15:09;36181.41;;;-140.95;65.28
38054;BME280;23859;50.672;7.164;2024-02-23T04:17:35;36221.59;;;-140.95;65.34
38054;BME280;23859;50.672;7.164;2024-02-23T04:20:06;36257.78;;;-140.95;65.10
38054;BME280;23859;50.672;7.164;2024-02-23T04:22:32;36189.47;;;-140.95;65.51
38054;BME280;23859;50.672;7.164;2024-02-23T04:24:58;36217.59;;;-140.95;65.25
38054;BME280;23859;50.672;7.164;2024-02-23T04:27:24;36209.56;;;-140.95;65.88
38054;BME280;23859;50.672;7.164;2024-02-23T04:29:50;36183.44;;;-140.95;65.97
38054;BME280;23859;50.672;7.164;2024-02-23T04:32:16;36213.56;;;-140.95;66.05
38054;BME280;23859;50.672;7.164;2024-02-23T04:34:42;36231.66;;;-140.95;66.68
38054;BME280;23859;50.672;7.164;2024-02-23T04:37:09;36201.50;;;-140.95;66.18
38054;BME280;23859;50.672;7.164;2024-02-23T04:39:35;36221.59;;;-140.95;66.67
38054;BME280;23859;50.672;7.164;2024-02-23T04:42:04;36504.94;;;-140.95;66.30
38054;BME280;23859;50.672;7.164;2024-02-23T04:44:30;36217.59;;;-140.95;65.83
38054;BME280;23859;50.672;7.164;2024-02-23T04:46:56;36183.44;;;-140.95;65.88
38054;BME280;23859;50.672;7.164;2024-02-23T04:49:22;36217.59;;;-140.95;66.23
38054;BME280;23859;50.672;7.164;2024-02-23T04:51:48;36177.41;;;-140.95;65.54
38054;BME280;23859;50.672;7.164;2024-02-23T04:54:14;36195.50;;;-140.95;64.95
38054;BME280;23859;50.672;7.164;2024-02-23T04:56:40;36205.53;;;-140.95;65.99
38054;BME280;23859;50.672;7.164;2024-02-23T04:59:06;36215.59;;;-140.95;66.46
38054;BME280;23859;50.672;7.164;2024-02-23T05:01:36;36205.53;;;-140.95;66.56
38054;BME280;23859;50.672;7.164;2024-02-23T05:04:03;36227.63;;;-140.95;66.08
38054;BME280;23859;50.672;7.164;2024-02-23T05:06:29;36207.53;;;-140.95;66.16
38054;BME280;23859;50.672;7.164;2024-02-23T05:08:55;36221.59;;;-140.95;66.66
38054;BME280;23859;50.672;7.164;2024-02-23T05:11:22;36257.78;;;-140.95;66.74
38054;BME280;23859;50.672;7.164;2024-02-23T05:13:48;36205.53;;;-140.95;67.00
38054;BME280;23859;50.672;7.164;2024-02-23T05:16:15;36217.59;;;-140.95;66.59
38054;BME280;23859;50.672;7.164;2024-02-23T05:18:41;36213.56;;;-140.95;66.82
38054;BME280;23859;50.672;7.164;2024-02-23T05:21:07;36217.59;;;-140.95;67.06
38054;BME280;23859;50.672;7.164;2024-02-23T05:23:34;36209.56;;;-140.95;66.81
38054;BME280;23859;50.672;7.164;2024-02-23T05:26:00;36197.50;;;-140.95;66.65
38054;BME280;23859;50.672;7.164;2024-02-23T05:28:26;36225.63;;;-140.95;67.02
38054;BME280;23859;50.672;7.164;2024-02-23T05:30:52;36213.56;;;-140.95;66.77
38054;BME280;23859;50.672;7.164;2024-02-23T05:33:18;36227.63;;;-140.95;66.76
38054;BME280;23859;50.672;7.164;2024-02-23T05:35:46;36217.59;;;-140.95;67.04
38054;BME280;23859;50.672;7.164;2024-02-23T05:38:15;36191.47;;;-140.95;67.60
38054;BME280;23859;50.672;7.164;2024-02-23T05:40:41;36211.56;;;-140.95;67.56
38054;BME280;23859;50.672;7.164;2024-02-23T05:43:07;36223.63;;;-140.95;66.56
38054;BME280;23859;50.672;7.164;2024-02-23T05:45:33;36217.59;;;-140.95;67.15
38054;BME280;23859;50.672;7.164;2024-02-23T05:48:00;36225.63;;;-140.95;66.44
38054;BME280;23859;50.672;7.164;2024-02-23T05:50:26;36205.53;;;-140.95;67.30
38054;BME280;23859;50.672;7.164;2024-02-23T05:52:52;36221.59;;;-140.95;66.42
38054;BME280;23859;50.672;7.164;2024-02-23T05:55:19;36197.50;;;-140.95;66.61
38054;BME280;23859;50.672;7.164;2024-02-23T05:57:45;36225.63;;;-140.95;65.97
38054;BME280;23859;50.672;7.164;2024-02-23T06:00:11;36181.41;;;-140.95;66.06
38054;BME280;23859;50.672;7.164;2024-02-23T06:02:39;36213.56;;;-140.95;64.83
38054;BME280;23859;50.672;7.164;2024-02-23T06:05:07;36181.41;;;-140.95;64.10
38054;BME280;23859;50.672;7.164;2024-02-23T06:07:34;36229.66;;;-140.95;64.42
38054;BME280;23859;50.672;7.164;2024-02-23T06:10:00;36213.56;;;-140.95;64.42
38054;BME280;23859;50.672;7.164;2024-02-23T06:12:27;36193.47;;;-140.95;64.40
38054;BME280;23859;50.672;7.164;2024-02-23T06:14:53;36209.56;;;-140.95;64.49
38054;BME280;23859;50.672;7.164;2024-02-23T06:17:21;36173.38;;;-140.95;64.15
38054;BME280;23859;50.672;7.164;2024-02-23T06:19:48;36179.41;;;-140.95;65.69
38054;BME280;23859;50.672;7.164;2024-02-23T06:22:14;36181.41;;;-140.95;63.55
38054;BME280;23859;50.672;7.164;2024-02-23T06:24:42;36185.44;;;-140.95;64.60
38054;BME280;23859;50.672;7.164;2024-02-23T06:27:09;36197.50;;;-140.95;63.21
38054;BME280;23859;50.672;7.164;2024-02-23T06:29:35;36189.47;;;-140.95;63.50
38054;BME280;23859;50.672;7.164;2024-02-23T06:32:01;36201.50;;;-140.95;63.13
38054;BME280;23859;50.672;7.164;2024-02-23T06:34:28;36209.56;;;-140.95;63.73
38054;BME280;23859;50.672;7.164;2024-02-23T06:36:54;36159.31;;;-140.95;63.14
38054;BME280;23859;50.672;7.164;2024-02-23T06:39:20;36187.44;;;-140.95;63.19
38054;BME280;23859;50.672;7.164;2024-02-23T06:41:46;36177.41;;;-140.95;62.31
38054;BME280;23859;50.672;7.164;2024-02-23T06:44:13;36207.53;;;-140.95;62.18
38054;BME280;23859;50.672;7.164;2024-02-23T06:46:40;36161.31;;;-140.95;61.75
38054;BME280;23859;50.672;7.164;2024-02-23T06:49:06;36165.34;;;-140.95;61.28
38054;BME280;23859;50.672;7.164;2024-02-23T06:51:32;36181.41;;;-140.95;60.67
38054;BME280;23859;50.672;7.164;2024-02-23T06:54:01;36173.38;;;-140.95;60.67
38054;BME280;23859;50.672;7.164;2024-02-23T06:56:29;36175.41;;;-140.95;60.93
38054;BME280;23859;50.672;7.164;2024-02-23T06:58:55;36189.47;;;-140.95;61.30
38054;BME280;23859;50.672;7.164;2024-02-23T07:01:21;36173.38;;;-140.95;60.86
38054;BME280;23859;50.672;7.164;2024-02-23T07:03:47;36175.41;;;-140.95;60.84
38054;BME280;23859;50.672;7.164;2024-02-23T07:06:16;36149.28;;;-140.95;60.31
38054;BME280;23859;50.672;7.164;2024-02-23T07:08:44;36157.31;;;-140.95;59.80
38054;BME280;23859;50.672;7.164;2024-02-23T07:11:11;36151.28;;;-140.95;59.18
38054;BME280;23859;50.672;7.164;2024-02-23T07:13:37;36125.16;;;-140.95;59.02
38054;BME280;23859;50.672;7.164;2024-02-23T07:16:03;36089.00;;;-140.95;58.62
38054;BME280;23859;50.672;7.164;2024-02-23T07:18:29;36066.88;;;-140.95;59.04
38054;BME280;23859;50.672;7.164;2024-02-23T07:20:55;36113.09;;;-140.95;58.32
38054;BME280;23859;50.672;7.164;2024-02-23T07:23:21;36109.09;;;-140.95;57.39
38054;BME280;23859;50.672;7.164;2024-02-23T07:25:48;36058.84;;;-140.95;57.08
38054;BME280;23859;50.672;7.164;2024-02-23T07:28:16;36101.03;;;-140.95;56.73
38054;BME280;23859;50.672;7.164;2024-02-23T07:30:45;36121.13;;;-140.95;57.56
38054;BME280;23859;50.672;7.164;2024-02-23T07:33:12;36109.09;;;-140.95;56.89
38054;BME280;23859;50.672;7.164;2024-02-23T07:35:38;36084.97;;;-140.95;56.73
38054;BME280;23859;50.672;7.164;2024-02-23T07:38:04;36048.81;;;-140.95;56.08
38054;BME280;23859;50.672;7.164;2024-02-23T07:40:30;36113.09;;;-140.95;55.72
38054;BME280;23859;50.672;7.164;2024-02-23T07:42:57;36064.88;;;-140.95;55.99
38054;BME280;23859;50.672;7.164;2024-02-23T07:45:24;36097.03;;;-140.95;56.47
38054;BME280;23859;50.672;7.164;2024-02-23T07:47:50;36111.09;;;-140.95;55.63
38054;BME280;23859;50.672;7.164;2024-02-23T07:50:16;36103.06;;;-140.95;55.68
38054;BME280;23859;50.672;7.164;2024-02-23T07:52:44;36042.78;;;-140.95;55.90
38054;BME280;23859;50.672;7.164;2024-02-23T07:55:10;36097.03;;;-140.95;56.31
38054;BME280;23859;50.672;7.164;2024-02-23T07:57:36;36014.66;;;-140.95;55.45
38054;BME280;23859;50.672;7.164;2024-02-23T08:00:04;36004.59;;;-140.95;53.10
38054;BME280;23859;50.672;7.164;2024-02-23T08:02:30;36000.59;;;-140.95;51.62
38054;BME280;23859;50.672;7.164;2024-02-23T08:04:56;35986.53;;;-140.95;51.83
38054;BME280;23859;50.672;7.164;2024-02-23T08:07:22;35994.56;;;-140.95;51.98
38054;BME280;23859;50.672;7.164;2024-02-23T08:09:49;36016.66;;;-140.95;53.45
38054;BME280;23859;50.672;7.164;2024-02-23T08:12:15;35990.53;;;-140.95;53.24
38054;BME280;23859;50.672;7.164;2024-02-23T08:14:42;35926.25;;;-140.95;52.42
38054;BME280;23859;50.672;7.164;2024-02-23T08:17:08;35839.84;;;-140.95;48.67
38054;BME280;23859;50.672;7.164;2024-02-23T08:19:34;35775.56;;;-140.95;45.50
38054;BME280;23859;50.672;7.164;2024-02-23T08:22:00;35835.81;;;-140.95;45.00
38054;BME280;23859;50.672;7.164;2024-02-23T08:24:26;35904.13;;;-140.95;47.33
38054;BME280;23859;50.672;7.164;2024-02-23T08:26:52;35904.13;;;-140.95;48.83
38054;BME280;23859;50.672;7.164;2024-02-23T08:29:18;35940.31;;;-140.95;50.12
38054;BME280;23859;50.672;7.164;2024-02-23T08:31:44;35906.16;;;-140.95;48.33
38054;BME280;23859;50.672;7.164;2024-02-23T08:34:10;35867.97;;;-140.95;47.61
38054;BME280;23859;50.672;7.164;2024-02-23T08:36:36;35880.03;;;-140.95;47.18
38054;BME280;23859;50.672;7.164;2024-02-23T08:39:02;35914.19;;;-140.95;48.25
38054;BME280;23859;50.672;7.164;2024-02-23T08:41:29;35914.19;;;-140.95;48.36
38054;BME280;23859;50.672;7.164;2024-02-23T08:43:55;35916.19;;;-140.95;49.23
38054;BME280;23859;50.672;7.164;2024-02-23T08:46:21;35938.28;;;-140.95;49.34
38054;BME280;23859;50.672;7.164;2024-02-23T08:48:47;35954.38;;;-140.95;49.37
38054;BME280;23859;50.672;7.164;2024-02-23T08:51:13;35934.28;;;-140.95;49.39
38054;BME280;23859;50.672;7.164;2024-02-23T08:53:40;35908.16;;;-140.95;49.61
38054;BME280;23859;50.672;7.164;2024-02-23T08:56:07;35884.03;;;-140.95;48.63
38054;BME280;23859;50.672;7.164;2024-02-23T08:58:33;35976.47;;;-140.95;48.34
38054;BME280;23859;50.672;7.164;2024-02-23T09:00:59;35960.41;;;-140.95;48.78
38054;BME280;23859;50.672;7.164;2024-02-23T09:03:25;35950.34;;;-140.95;49.20
38054;BME280;23859;50.672;7.164;2024-02-23T09:05:51;35928.25;;;-140.95;49.36
38054;BME280;23859;50.672;7.164;2024-02-23T09:08:18;35962.41;;;-140.95;49.50
38054;BME280;23859;50.672;7.164;2024-02-23T09:10:44;35936.28;;;-140.95;49.52
38054;BME280;23859;50.672;7.164;2024-02-23T09:13:11;35950.34;;;-140.95;49.02
38054;BME280;23859;50.672;7.164;2024-02-23T09:15:37;35936.28;;;-140.95;49.01
38054;BME280;23859;50.672;7.164;2024-02-23T09:18:03;35988.53;;;-140.95;49.35
38054;BME280;23859;50.672;7.164;2024-02-23T09:20:29;35960.41;;;-140.95;49.80
38054;BME280;23859;50.672;7.164;2024-02-23T09:22:55;35968.44;;;-140.95;49.36
38054;BME280;23859;50.672;7.164;2024-02-23T09:25:21;35962.41;;;-140.95;50.29
38054;BME280;23859;50.672;7.164;2024-02-23T09:27:47;35976.47;;;-140.95;49.83
38054;BME280;23859;50.672;7.164;2024-02-23T09:30:14;35942.31;;;-140.95;49.79
38054;BME280;23859;50.672;7.164;2024-02-23T09:32:40;35948.34;;;-140.95;50.00
38054;BME280;23859;50.672;7.164;2024-02-23T09:35:07;35964.41;;;-140.95;48.62
38054;BME280;23859;50.672;7.164;2024-02-23T09:37:33;36241.69;;;-140.95;49.44
38054;BME280;23859;50.672;7.164;2024-02-23T09:39:59;35944.31;;;-140.95;48.63
38054;BME280;23859;50.672;7.164;2024-02-23T09:42:26;35940.31;;;-140.95;49.36
38054;BME280;23859;50.672;7.164;2024-02-23T09:44:58;35896.09;;;-140.95;48.99
38054;BME280;23859;50.672;7.164;2024-02-23T09:47:27;35922.22;;;-140.95;47.43
38054;BME280;23859;50.672;7.164;2024-02-23T09:49:54;35892.09;;;-140.95;48.69
38054;BME280;23859;50.672;7.164;2024-02-23T09:52:21;35902.13;;;-140.95;48.73
38054;BME280;23859;50.672;7.164;2024-02-23T09:54:48;35922.22;;;-140.95;48.36
38054;BME280;23859;50.672;7.164;2024-02-23T09:57:16;35894.09;;;-140.95;47.61
38054;BME280;23859;50.672;7.164;2024-02-23T09:59:43;35906.16;;;-140.95;48.26
38054;BME280;23859;50.672;7.164;2024-02-23T10:02:14;35908.16;;;-140.95;49.24
38054;BME280;23859;50.672;7.164;2024-02-23T10:04:41;35908.16;;;-140.95;49.33
38054;BME280;23859;50.672;7.164;2024-02-23T10:07:09;35833.81;;;-140.95;48.95
38054;BME280;23859;50.672;7.164;2024-02-23T10:09:35;35799.66;;;-140.95;47.74
38054;BME280;23859;50.672;7.164;2024-02-23T10:12:02;35859.94;;;-140.95;47.50
38054;BME280;23859;50.672;7.164;2024-02-23T10:14:29;35835.81;;;-140.95;47.91
38054;BME280;23859;50.672;7.164;2024-02-23T10:16:55;35592.72;;;-140.95;43.68
38054;BME280;23859;50.672;7.164;2024-02-23T10:19:21;35550.53;;;-140.95;39.51
38054;BME280;23859;50.672;7.164;2024-02-23T10:21:47;35405.88;;;-140.95;37.94
38054;BME280;23859;50.672;7.164;2024-02-23T10:24:17;35196.94;;;-140.95;34.54
38054;BME280;23859;50.672;7.164;2024-02-23T10:26:43;35538.47;;;-140.95;34.92
38054;BME280;23859;50.672;7.164;2024-02-23T10:29:10;35301.41;;;-140.95;34.84
38054;BME280;23859;50.672;7.164;2024-02-23T10:31:36;35148.75;;;-140.95;33.74
38054;BME280;23859;50.672;7.164;2024-02-23T10:34:09;34875.56;;;-140.95;30.89
38054;BME280;23859;50.672;7.164;2024-02-23T10:36:41;35178.88;;;-140.95;32.11
38054;BME280;23859;50.672;7.164;2024-02-23T10:39:11;35347.63;;;-140.95;35.27
38054;BME280;23859;50.672;7.164;2024-02-23T10:41:44;35084.47;;;-140.95;34.07
38054;BME280;23859;50.672;7.164;2024-02-23T10:44:12;34937.81;;;-140.95;30.66
38054;BME280;23859;50.672;7.164;2024-02-23T10:46:39;35239.13;;;-140.95;32.66
38054;BME280;23859;50.672;7.164;2024-02-23T10:49:07;35405.88;;;-140.95;35.47
38054;BME280;23859;50.672;7.164;2024-02-23T10:51:33;35309.44;;;-140.95;35.73
38054;BME280;23859;50.672;7.164;2024-02-23T10:54:03;35307.44;;;-140.95;35.43
38054;BME280;23859;50.672;7.164;2024-02-23T10:56:29;35275.31;;;-140.95;33.71
38054;BME280;23859;50.672;7.164;2024-02-23T10:58:56;35482.22;;;-140.95;35.84
38054;BME280;23859;50.672;7.164;2024-02-23T11:01:22;35642.94;;;-140.95;38.48
38054;BME280;23859;50.672;7.164;2024-02-23T11:03:51;35797.66;;;-140.95;43.86
38054;BME280;23859;50.672;7.164;2024-02-23T11:06:17;35872.00;;;-140.95;48.89
38054;BME280;23859;50.672;7.164;2024-02-23T11:08:47;35888.06;;;-140.95;50.64
38054;BME280;23859;50.672;7.164;2024-02-23T11:11:17;35910.16;;;-140.95;57.15
38054;BME280;23859;50.672;7.164;2024-02-23T11:13:44;35839.84;;;-140.95;60.05
38054;BME280;23859;50.672;7.164;2024-02-23T11:16:20;35781.56;;;-140.95;55.39
38054;BME280;23859;50.672;7.164;2024-02-23T11:18:47;35765.50;;;-140.95;53.02
38054;BME280;23859;50.672;7.164;2024-02-23T11:21:13;35630.91;;;-140.95;53.25
38054;BME280;23859;50.672;7.164;2024-02-23T11:23:41;35432.00;;;-140.95;45.96
38054;BME280;23859;50.672;7.164;2024-02-23T11:26:11;35349.63;;;-140.95;41.90
38054;BME280;23859;50.672;7.164;2024-02-23T11:28:49;35630.91;;;-140.95;46.08
38054;BME280;23859;50.672;7.164;2024-02-23T11:31:23;35602.75;;;-140.95;51.36
38054;BME280;23859;50.672;7.164;2024-02-23T11:36:23;35574.63;;;-140.95;43.48
38054;BME280;23859;50.672;7.164;2024-02-23T11:38:53;35719.28;;;-140.95;45.57
38054;BME280;23859;50.672;7.164;2024-02-23T11:41:22;35749.44;;;-140.95;49.15
38054;BME280;23859;50.672;7.164;2024-02-23T11:43:50;35743.41;;;-140.95;49.74
38054;BME280;23859;50.672;7.164;2024-02-23T11:46:17;35697.19;;;-140.95;47.99
38054;BME280;23859;50.672;7.164;2024-02-23T11:48:44;35590.72;;;-140.95;43.43
38054;BME280;23859;50.672;7.164;2024-02-23T11:51:10;35667.06;;;-140.95;43.95
38054;BME280;23859;50.672;7.164;2024-02-23T11:53:37;35717.28;;;-140.95;45.50
38054;BME280;23859;50.672;7.164;2024-02-23T11:56:05;35737.38;;;-140.95;46.45
38054;BME280;23859;50.672;7.164;2024-02-23T11:58:32;35759.47;;;-140.95;45.77
38054;BME280;23859;50.672;7.164;2024-02-23T12:01:00;35733.34;;;-140.95;46.66
38054;BME280;23859;50.672;7.164;2024-02-23T12:03:28;35620.84;;;-140.95;44.82
38054;BME280;23859;50.672;7.164;2024-02-23T12:05:57;35630.91;;;-140.95;45.59
38054;BME280;23859;50.672;7.164;2024-02-23T12:08:25;35683.13;;;-140.95;41.65
38054;BME280;23859;50.672;7.164;2024-02-23T12:10:53;35703.22;;;-140.95;44.18
38054;BME280;23859;50.672;7.164;2024-02-23T12:13:19;35731.34;;;-140.95;45.02
38054;BME280;23859;50.672;7.164;2024-02-23T12:15:47;35747.41;;;-140.95;46.39
38054;BME280;23859;50.672;7.164;2024-02-23T12:18:13;35747.41;;;-140.95;46.67
38054;BME280;23859;50.672;7.164;2024-02-23T12:20:40;35743.41;;;-140.95;46.51
38054;BME280;23859;50.672;7.164;2024-02-23T12:23:06;35747.41;;;-140.95;43.08
38054;BME280;23859;50.672;7.164;2024-02-23T12:25:36;35691.16;;;-140.95;42.95
38054;BME280;23859;50.672;7.164;2024-02-23T12:28:02;35667.06;;;-140.95;41.82
38054;BME280;23859;50.672;7.164;2024-02-23T12:30:30;35683.13;;;-140.95;42.13
38054;BME280;23859;50.672;7.164;2024-02-23T12:33:07;35715.28;;;-140.95;43.81
38054;BME280;23859;50.672;7.164;2024-02-23T12:35:34;35685.13;;;-140.95;43.57
38054;BME280;23859;50.672;7.164;2024-02-23T12:38:01;35638.94;;;-140.95;41.47
38054;BME280;23859;50.672;7.164;2024-02-23T12:40:27;35659.03;;;-140.95;42.93